Time;durP1;ratioP1;P1;durP2;ratioP2;P2;SDS_P1;SDS_P2;PMS_P1;PMS_P2;Temp;Humidity;BMP_temperature;BMP_pressure;BME280_temperature;BME280_humidity;BME280_pressure;Samples;Min_cycle;Max_cycle;Signal;HPM_P1;HPM_P2
2024/03/11 00:02:21;;;;;;;2.33;0.98;;;11.70;72.20;;;;;;2585723;53;21946;-67
2024/03/11 00:04:47;;;;;;;2.05;0.80;;;11.70;72.20;;;;;;2339899;54;21013;-66
2024/03/11 00:07:15;;;;;;;2.75;0.98;;;11.70;72.10;;;;;;2585761;53;21457;-66
2024/03/11 00:09:45;;;;;;;2.30;0.90;;;11.60;72.10;;;;;;2340680;54;20976;-66
2024/03/11 00:12:11;;;;;;;1.70;0.70;;;11.70;72.20;;;;;;2585711;53;21470;-66
2024/03/11 00:14:47;;;;;;;1.90;0.77;;;11.70;72.20;;;;;;2585778;53;21869;-66
2024/03/11 00:17:14;;;;;;;2.83;0.62;;;11.60;72.10;;;;;;2585694;53;21490;-65
2024/03/11 00:19:41;;;;;;;1.55;0.65;;;11.60;72.10;;;;;;2586718;53;21841;-66
2024/03/11 00:22:11;;;;;;;1.98;0.70;;;11.60;72.10;;;;;;2558040;53;20986;-66
2024/03/11 00:24:38;;;;;;;1.52;0.65;;;11.60;72.00;;;;;;2337050;54;21049;-66
2024/03/11 00:27:07;;;;;;;1.92;0.80;;;11.60;72.00;;;;;;2585596;53;21095;-65
2024/03/11 00:29:35;;;;;;;2.00;0.70;;;11.60;71.90;;;;;;2586683;53;20953;-66
2024/03/11 00:32:09;;;;;;;1.58;0.70;;;11.60;71.80;;;;;;2586299;53;21029;-66
2024/03/11 00:34:35;;;;;;;1.30;0.57;;;11.60;71.70;;;;;;2586948;53;20976;-66
2024/03/11 00:37:02;;;;;;;2.22;0.62;;;11.60;71.70;;;;;;2340501;54;21039;-66
2024/03/11 00:39:28;;;;;;;2.00;0.80;;;11.60;71.70;;;;;;2340085;54;20964;-66
2024/03/11 00:41:55;;;;;;;1.55;0.60;;;11.60;71.60;;;;;;2340553;54;20984;-65
2024/03/11 00:44:21;;;;;;;1.48;0.65;;;11.50;71.50;;;;;;2586249;53;21005;-66
2024/03/11 00:46:49;;;;;;;1.35;0.45;;;11.50;71.50;;;;;;2340041;54;21032;-66
2024/03/11 00:49:17;;;;;;;1.00;0.50;;;11.50;71.40;;;;;;2565142;53;21006;-65
2024/03/11 00:51:44;;;;;;;1.33;0.50;;;11.50;71.30;;;;;;2309577;55;20966;-66
2024/03/11 00:54:11;;;;;;;1.05;0.50;;;11.40;71.20;;;;;;2340394;54;21864;-66
2024/03/11 00:56:38;;;;;;;1.23;0.40;;;11.40;71.20;;;;;;2341007;54;21327;-66
2024/03/11 00:59:05;;;;;;;1.55;0.60;;;11.40;71.20;;;;;;2340612;54;21287;-66
2024/03/11 01:01:32;;;;;;;0.88;0.50;;;11.40;71.20;;;;;;2340906;54;20972;-66
2024/03/11 01:04:00;;;;;;;2.60;0.50;;;11.30;71.20;;;;;;2586708;53;20957;-67
2024/03/11 01:06:26;;;;;;;0.88;0.40;;;11.30;71.20;;;;;;2340764;54;21838;-66
2024/03/11 01:08:54;;;;;;;1.17;0.50;;;11.30;71.20;;;;;;2587357;53;20963;-66
2024/03/11 01:11:23;;;;;;;0.57;0.40;;;11.30;71.30;;;;;;2586869;53;21193;-66
2024/03/11 01:13:50;;;;;;;1.40;0.57;;;11.20;71.10;;;;;;2587194;53;21671;-66
2024/03/11 01:16:16;;;;;;;0.98;0.50;;;11.20;71.20;;;;;;2586617;53;20984;-66
2024/03/11 01:18:45;;;;;;;1.00;0.40;;;11.20;71.20;;;;;;2340184;54;21932;-66
2024/03/11 01:21:13;;;;;;;1.80;0.68;;;11.20;71.20;;;;;;2340216;54;20964;-66
2024/03/11 01:23:41;;;;;;;1.05;0.57;;;11.10;71.20;;;;;;2341353;54;20956;-65
2024/03/11 01:26:09;;;;;;;0.62;0.35;;;11.10;71.20;;;;;;2586007;53;20976;-66
2024/03/11 01:28:37;;;;;;;1.17;0.32;;;11.10;71.20;;;;;;2584019;53;21253;-66
2024/03/11 01:31:12;;;;;;;1.62;0.40;;;11.10;71.20;;;;;;2340156;54;21037;-66
2024/03/11 01:33:39;;;;;;;0.93;0.45;;;11.10;71.00;;;;;;2340617;54;21031;-66
2024/03/11 01:36:09;;;;;;;0.77;0.40;;;11.00;71.10;;;;;;2340184;54;21316;-66
2024/03/11 01:38:36;;;;;;;1.02;0.40;;;11.00;71.80;;;;;;2340581;54;21028;-66
2024/03/11 01:41:02;;;;;;;1.15;0.45;;;11.00;71.10;;;;;;2340079;54;21454;-66
2024/03/11 01:43:30;;;;;;;1.33;0.60;;;10.90;70.90;;;;;;2585949;53;20945;-66
2024/03/11 01:45:56;;;;;;;0.55;0.40;;;10.90;70.90;;;;;;2547465;53;21034;-65
2024/03/11 01:48:25;;;;;;;1.52;0.40;;;10.90;70.80;;;;;;2546624;53;20996;-66
2024/03/11 01:50:51;;;;;;;1.45;0.70;;;10.80;70.70;;;;;;2308033;54;20959;-66
2024/03/11 01:53:18;;;;;;;0.98;0.50;;;10.80;70.60;;;;;;2308102;56;21034;-66
2024/03/11 01:55:46;;;;;;;0.43;0.30;;;10.80;70.60;;;;;;2308847;56;20979;-66
2024/03/11 01:58:13;;;;;;;1.27;0.45;;;10.70;70.50;;;;;;2308464;55;20963;-66
2024/03/11 02:00:42;;;;;;;1.73;0.50;;;10.70;70.40;;;;;;2308234;56;21712;-66
2024/03/11 02:03:09;;;;;;;0.90;0.35;;;10.70;70.30;;;;;;2547226;53;20936;-66
2024/03/11 02:05:44;;;;;;;0.57;0.32;;;10.60;70.70;;;;;;2307903;54;21603;-65
2024/03/11 02:08:12;;;;;;;1.08;0.40;;;10.60;70.10;;;;;;2547036;53;21441;-66
2024/03/11 02:10:40;;;;;;;2.25;0.50;;;10.50;70.00;;;;;;2309173;54;21030;-66
2024/03/11 02:13:07;;;;;;;0.60;0.32;;;10.50;70.00;;;;;;2547230;53;21884;-66
2024/03/11 02:15:33;;;;;;;0.68;0.37;;;10.40;70.00;;;;;;2519778;53;21069;-66
2024/03/11 02:18:00;;;;;;;0.82;0.40;;;10.40;70.10;;;;;;2512351;54;20945;-66
2024/03/11 02:20:28;;;;;;;1.17;0.50;;;10.30;70.00;;;;;;2552871;53;21866;-66
2024/03/11 02:22:56;;;;;;;0.37;0.30;;;10.30;70.20;;;;;;2303647;54;21446;-65
2024/03/11 02:25:27;;;;;;;1.00;0.40;;;10.20;70.20;;;;;;2338394;54;21467;-65
2024/03/11 02:27:54;;;;;;;1.23;0.50;;;10.20;70.30;;;;;;2560572;53;20937;-66
2024/03/11 02:30:21;;;;;;;1.42;0.73;;;10.20;70.40;;;;;;2340350;54;21000;-66
2024/03/11 02:32:47;;;;;;;2.55;1.15;;;10.10;70.50;;;;;;2341385;54;20979;-65
2024/03/11 02:35:15;;;;;;;3.58;2.58;;;10.10;70.60;;;;;;2340444;54;20932;-66
2024/03/11 02:37:45;;;;;;;4.37;3.35;;;10.10;71.30;;;;;;2340629;54;21016;-66
2024/03/11 02:40:11;;;;;;;3.58;2.78;;;10.00;70.70;;;;;;2586594;53;20985;-66
2024/03/11 02:42:39;;;;;;;3.70;1.92;;;10.00;70.70;;;;;;2340217;54;21008;-66
2024/03/11 02:45:07;;;;;;;2.85;1.40;;;10.00;70.70;;;;;;2586444;53;21778;-65
2024/03/11 02:47:34;;;;;;;3.17;1.08;;;10.00;70.60;;;;;;2340671;54;20961;-66
2024/03/11 02:50:01;;;;;;;2.00;0.90;;;9.90;71.60;;;;;;2587115;53;20961;-66
2024/03/11 02:52:28;;;;;;;1.77;0.80;;;9.90;71.60;;;;;;2340733;54;20956;-65
2024/03/11 02:54:55;;;;;;;1.15;0.60;;;9.90;71.60;;;;;;2586823;53;20956;-66
2024/03/11 02:57:23;;;;;;;1.80;0.80;;;9.90;71.60;;;;;;2340539;54;21049;-66
2024/03/11 02:59:52;;;;;;;1.15;0.60;;;9.80;71.40;;;;;;2586434;53;21781;-66
2024/03/11 03:02:18;;;;;;;2.72;0.90;;;9.80;71.40;;;;;;2340311;54;21752;-66
2024/03/11 03:04:45;;;;;;;1.42;0.70;;;9.80;71.30;;;;;;2584365;53;20937;-65
2024/03/11 03:07:12;;;;;;;1.67;0.77;;;9.80;71.30;;;;;;2317579;54;21458;-65
2024/03/11 03:09:39;;;;;;;1.67;0.68;;;9.70;71.10;;;;;;2586434;53;22830;-65
2024/03/11 03:12:09;;;;;;;3.80;0.77;;;9.70;71.10;;;;;;2340910;54;20957;-66
2024/03/11 03:14:39;;;;;;;1.27;0.62;;;9.60;71.00;;;;;;2585889;53;20957;-66
2024/03/11 03:17:07;;;;;;;1.37;0.70;;;9.60;70.90;;;;;;2340048;54;20976;-65
2024/03/11 03:19:37;;;;;;;1.48;0.60;;;9.50;70.80;;;;;;2586386;53;20944;-65
2024/03/11 03:22:04;;;;;;;1.52;0.70;;;9.50;70.80;;;;;;2340442;54;20976;-66
2024/03/11 03:24:30;;;;;;;1.55;0.70;;;9.40;70.70;;;;;;2585836;53;20958;-66
2024/03/11 03:26:57;;;;;;;1.45;0.70;;;9.40;70.70;;;;;;2340903;54;20972;-66
2024/03/11 03:29:24;;;;;;;1.30;0.60;;;9.40;70.80;;;;;;2585475;53;20984;-66
2024/03/11 03:31:51;;;;;;;1.12;0.50;;;9.30;70.60;;;;;;2341823;54;21008;-65
2024/03/11 03:34:17;;;;;;;1.10;0.50;;;9.30;70.60;;;;;;2586531;53;20941;-65
2024/03/11 03:36:45;;;;;;;2.62;0.70;;;9.20;70.50;;;;;;2585835;53;20944;-65
2024/03/11 03:39:11;;;;;;;2.87;0.70;;;9.20;70.40;;;;;;2586423;53;21005;-66
2024/03/11 03:41:38;;;;;;;1.77;0.65;;;9.10;70.30;;;;;;2338115;54;20958;-66
2024/03/11 03:44:05;;;;;;;2.05;0.77;;;9.10;70.40;;;;;;2562298;53;20948;-65
2024/03/11 03:46:32;;;;;;;3.28;0.60;;;9.00;70.30;;;;;;2587264;53;20944;-66
2024/03/11 03:48:58;;;;;;;1.35;0.60;;;9.00;70.40;;;;;;2563840;53;21001;-66
2024/03/11 03:51:25;;;;;;;0.98;0.50;;;9.00;70.40;;;;;;2332677;54;21000;-66
2024/03/11 03:53:51;;;;;;;1.30;0.60;;;8.90;70.40;;;;;;2340863;54;21292;-65
2024/03/11 03:56:17;;;;;;;1.35;0.60;;;8.80;70.30;;;;;;2340993;54;21020;-65
2024/03/11 03:58:44;;;;;;;1.98;0.80;;;8.80;70.40;;;;;;2586260;53;21494;-65
2024/03/11 04:01:10;;;;;;;1.17;0.60;;;8.80;70.50;;;;;;2340438;54;21708;-65
2024/03/11 04:03:36;;;;;;;4.28;1.05;;;8.70;70.40;;;;;;2339730;54;20968;-65
2024/03/11 04:06:05;;;;;;;2.12;0.88;;;8.70;70.60;;;;;;2586430;53;20945;-66
2024/03/11 04:08:31;;;;;;;2.60;1.00;;;8.60;70.60;;;;;;2318563;54;21002;-65
2024/03/11 04:10:58;;;;;;;3.60;1.20;;;8.60;70.70;;;;;;2585291;53;21237;-66
2024/03/11 04:13:26;;;;;;;2.30;1.15;;;8.60;70.70;;;;;;2564620;53;21420;-66
2024/03/11 04:15:56;;;;;;;1.73;0.77;;;8.50;70.50;;;;;;2332116;54;20976;-65
2024/03/11 04:18:24;;;;;;;2.53;1.00;;;8.50;70.50;;;;;;2341108;54;21008;-65
2024/03/11 04:20:50;;;;;;;1.80;0.80;;;8.40;70.50;;;;;;2340377;54;20980;-66
2024/03/11 04:23:18;;;;;;;1.77;0.77;;;8.40;70.50;;;;;;2339873;54;21272;-66
2024/03/11 04:25:47;;;;;;;2.10;0.80;;;8.40;70.60;;;;;;2328650;54;20966;-66
2024/03/11 04:28:13;;;;;;;2.33;0.88;;;8.40;70.70;;;;;;2329512;54;21064;-65
2024/03/11 04:30:44;;;;;;;1.70;0.77;;;8.30;70.60;;;;;;2331119;54;20986;-65
2024/03/11 04:33:16;;;;;;;1.45;0.60;;;8.30;70.70;;;;;;2572234;53;21009;-66
2024/03/11 04:35:44;;;;;;;1.58;0.60;;;8.30;70.90;;;;;;2586144;53;20949;-65
2024/03/11 04:38:15;;;;;;;1.67;0.70;;;8.20;71.00;;;;;;2340786;54;20933;-65
2024/03/11 04:40:43;;;;;;;1.58;0.60;;;8.20;71.10;;;;;;2339389;54;21021;-65
2024/03/11 04:43:17;;;;;;;2.12;0.75;;;8.20;71.20;;;;;;2336781;54;20956;-66
2024/03/11 04:45:52;;;;;;;2.80;1.00;;;8.20;71.20;;;;;;2322621;55;21045;-65
2024/03/11 04:48:19;;;;;;;5.68;2.03;;;8.20;71.20;;;;;;2323139;54;21488;-66
2024/03/11 04:50:45;;;;;;;4.03;1.60;;;8.10;71.30;;;;;;2334395;54;20957;-66
2024/03/11 04:53:16;;;;;;;4.40;1.50;;;8.10;71.30;;;;;;2586809;53;20941;-65
2024/03/11 04:55:43;;;;;;;2.45;1.12;;;8.10;71.40;;;;;;2340722;54;20980;-66
2024/03/11 04:58:09;;;;;;;2.25;1.00;;;8.10;71.40;;;;;;2587111;53;20996;-65
2024/03/11 05:00:37;;;;;;;3.03;1.20;;;8.10;71.40;;;;;;2340936;54;21017;-66
2024/03/11 05:03:04;;;;;;;2.17;0.88;;;8.10;71.40;;;;;;2339934;54;21173;-66
2024/03/11 05:05:34;;;;;;;2.22;0.90;;;8.10;71.40;;;;;;2586733;53;21844;-65
2024/03/11 05:08:01;;;;;;;2.37;0.90;;;8.00;71.20;;;;;;2341082;54;21770;-65
2024/03/11 05:10:28;;;;;;;3.25;1.27;;;8.00;71.20;;;;;;2586693;53;20949;-65
2024/03/11 05:12:57;;;;;;;3.53;1.40;;;8.00;71.20;;;;;;2340225;54;21004;-65
2024/03/11 05:15:23;;;;;;;2.40;1.10;;;8.00;71.30;;;;;;2340002;54;21022;-66
2024/03/11 05:17:50;;;;;;;3.03;1.60;;;8.00;71.30;;;;;;2584867;53;21725;-65
2024/03/11 05:20:19;;;;;;;2.35;0.98;;;8.00;71.30;;;;;;2340775;54;21342;-65
2024/03/11 05:22:46;;;;;;;3.37;1.20;;;8.00;71.40;;;;;;2340267;54;20953;-66
2024/03/11 05:25:17;;;;;;;4.03;1.80;;;7.90;71.50;;;;;;2555089;53;21633;-65
2024/03/11 05:27:45;;;;;;;4.30;1.87;;;7.90;71.90;;;;;;2547665;54;20979;-65
2024/03/11 05:30:11;;;;;;;2.67;1.23;;;7.90;72.10;;;;;;2307556;54;21015;-66
2024/03/11 05:32:38;;;;;;;2.47;1.05;;;7.90;72.40;;;;;;2546938;54;21468;-65
2024/03/11 05:35:04;;;;;;;1.95;0.77;;;8.00;72.80;;;;;;2308721;54;20983;-65
2024/03/11 05:37:34;;;;;;;2.00;0.85;;;8.00;73.20;;;;;;2308444;54;20960;-65
2024/03/11 05:40:03;;;;;;;2.58;0.73;;;8.00;73.40;;;;;;2307391;55;21003;-66
2024/03/11 05:42:30;;;;;;;2.72;0.70;;;8.10;73.80;;;;;;2545988;54;21015;-65
2024/03/11 05:44:56;;;;;;;1.37;0.62;;;8.10;74.00;;;;;;2545775;54;21310;-66
2024/03/11 05:47:25;;;;;;;1.55;0.60;;;8.10;74.20;;;;;;2546219;54;20991;-67
2024/03/11 05:49:55;;;;;;;1.15;0.60;;;8.20;74.40;;;;;;2306923;55;20963;-66
2024/03/11 05:52:24;;;;;;;1.37;0.60;;;8.30;74.60;;;;;;2545856;54;21019;-66
2024/03/11 05:54:54;;;;;;;1.20;0.50;;;8.30;74.70;;;;;;2306886;55;20971;-66
2024/03/11 05:57:26;;;;;;;0.88;0.50;;;8.40;74.90;;;;;;2295360;55;20965;-66
2024/03/11 05:59:53;;;;;;;1.60;0.57;;;8.50;75.00;;;;;;2301236;55;21449;-66
2024/03/11 06:02:19;;;;;;;2.60;0.50;;;8.50;75.00;;;;;;2309243;55;20964;-65
2024/03/11 06:04:48;;;;;;;0.82;0.52;;;8.60;75.10;;;;;;2282780;55;20998;-66
2024/03/11 06:07:23;;;;;;;1.48;0.68;;;8.70;75.10;;;;;;2547645;54;20987;-66
2024/03/11 06:09:51;;;;;;;1.40;0.62;;;8.70;74.90;;;;;;2547068;54;21315;-66
2024/03/11 06:12:20;;;;;;;1.45;0.65;;;8.80;74.90;;;;;;2547957;54;20963;-66
2024/03/11 06:14:47;;;;;;;2.22;0.90;;;8.80;74.70;;;;;;2310596;54;21082;-66
2024/03/11 06:17:13;;;;;;;1.73;0.77;;;8.90;74.70;;;;;;2309399;54;21027;-66
2024/03/11 06:19:39;;;;;;;2.15;0.98;;;8.90;74.50;;;;;;2547404;54;20923;-66
2024/03/11 06:22:08;;;;;;;1.95;0.77;;;8.90;74.30;;;;;;2308165;54;20955;-66
2024/03/11 06:24:38;;;;;;;1.75;0.80;;;9.00;74.30;;;;;;2308495;54;20995;-66
2024/03/11 06:27:04;;;;;;;2.00;0.90;;;9.00;74.10;;;;;;2584038;53;21304;-66
2024/03/11 06:29:30;;;;;;;2.00;0.80;;;9.00;73.90;;;;;;2586658;53;20940;-65
2024/03/11 06:31:59;;;;;;;2.12;1.05;;;9.10;73.80;;;;;;2339807;54;21004;-66
2024/03/11 06:34:27;;;;;;;2.45;0.93;;;9.10;73.60;;;;;;2340953;54;21691;-65
2024/03/11 06:36:54;;;;;;;2.33;1.00;;;9.10;73.50;;;;;;2340751;54;21375;-66
2024/03/11 06:39:20;;;;;;;1.85;0.90;;;9.10;73.50;;;;;;2553264;53;21038;-66
2024/03/11 06:41:47;;;;;;;1.95;1.00;;;9.10;73.30;;;;;;2585991;53;20949;-65
2024/03/11 06:44:13;;;;;;;2.05;0.77;;;9.10;73.20;;;;;;2340123;54;20960;-66
2024/03/11 06:46:41;;;;;;;1.90;0.90;;;9.10;73.10;;;;;;2585558;53;20977;-65
2024/03/11 06:49:09;;;;;;;2.05;0.90;;;9.10;73.10;;;;;;2340081;54;21020;-66
2024/03/11 06:51:35;;;;;;;2.15;1.00;;;9.10;73.10;;;;;;2585582;53;21518;-66
2024/03/11 06:54:02;;;;;;;2.00;0.80;;;9.10;73.20;;;;;;2586023;53;21939;-66
2024/03/11 06:56:30;;;;;;;2.33;0.85;;;9.10;74.00;;;;;;2341127;54;21422;-66
2024/03/11 06:58:58;;;;;;;3.05;0.80;;;9.10;73.40;;;;;;2339971;54;21001;-66
2024/03/11 07:01:28;;;;;;;2.12;0.70;;;9.10;73.50;;;;;;2586752;53;20988;-66
2024/03/11 07:03:55;;;;;;;2.10;0.70;;;9.20;73.80;;;;;;2341698;54;20985;-66
2024/03/11 07:06:22;;;;;;;2.60;0.90;;;9.20;74.00;;;;;;2341002;54;21352;-66
2024/03/11 07:08:50;;;;;;;1.77;0.70;;;9.20;74.20;;;;;;2324770;54;21263;-66
2024/03/11 07:11:16;;;;;;;1.45;0.60;;;9.20;74.30;;;;;;2578232;53;20932;-66
2024/03/11 07:13:42;;;;;;;1.10;0.45;;;9.30;74.50;;;;;;2340297;54;20960;-66
2024/03/11 07:16:12;;;;;;;1.12;0.40;;;9.30;74.70;;;;;;2340363;54;20952;-67
2024/03/11 07:18:40;;;;;;;1.25;0.50;;;9.40;74.90;;;;;;2586212;53;21355;-66
2024/03/11 07:21:06;;;;;;;2.10;0.50;;;9.40;75.10;;;;;;2586193;53;20981;-66
2024/03/11 07:23:35;;;;;;;1.35;0.50;;;9.60;75.40;;;;;;2587327;53;21292;-66
2024/03/11 07:26:01;;;;;;;1.55;0.70;;;9.50;75.40;;;;;;2340282;54;20985;-66
2024/03/11 07:28:28;;;;;;;1.83;0.40;;;9.60;75.70;;;;;;2587082;53;21033;-66
2024/03/11 07:30:57;;;;;;;2.45;0.82;;;9.70;75.60;;;;;;2340720;54;20945;-66
2024/03/11 07:33:24;;;;;;;1.92;0.65;;;9.70;75.60;;;;;;2342424;54;21875;-66
2024/03/11 07:35:52;;;;;;;2.70;0.85;;;9.80;76.50;;;;;;2340409;54;20924;-65
2024/03/11 07:38:19;;;;;;;1.23;0.50;;;9.90;75.90;;;;;;2341246;54;21012;-66
2024/03/11 07:40:45;;;;;;;0.90;0.40;;;10.00;74.80;;;;;;2340792;54;21112;-66
2024/03/11 07:43:12;;;;;;;1.62;0.50;;;10.00;74.80;;;;;;2340131;54;21036;-66
2024/03/11 07:45:38;;;;;;;1.65;0.60;;;10.10;74.80;;;;;;2341094;54;20929;-66
2024/03/11 07:48:06;;;;;;;1.92;0.85;;;10.20;74.90;;;;;;2335411;54;20999;-66
2024/03/11 07:50:32;;;;;;;1.45;0.60;;;10.20;74.90;;;;;;2564651;53;21004;-66
2024/03/11 07:53:02;;;;;;;1.62;0.70;;;10.30;75.00;;;;;;2340164;54;20994;-66
2024/03/11 07:55:28;;;;;;;1.30;0.57;;;10.40;75.00;;;;;;2587137;53;20936;-66
2024/03/11 07:57:55;;;;;;;1.30;0.50;;;10.50;75.10;;;;;;2586764;53;21486;-66
2024/03/11 08:00:29;;;;;;;1.33;0.57;;;10.50;75.10;;;;;;2340140;54;21008;-67
2024/03/11 08:02:57;;;;;;;0.77;0.40;;;10.60;75.10;;;;;;2340291;54;21450;-67
2024/03/11 08:05:24;;;;;;;3.03;0.93;;;10.70;75.20;;;;;;2587272;53;20979;-67
2024/03/11 08:07:50;;;;;;;3.15;0.90;;;10.80;75.20;;;;;;2340702;54;21476;-66
2024/03/11 08:10:17;;;;;;;1.35;0.60;;;10.80;75.20;;;;;;2341118;54;20977;-67
2024/03/11 08:12:44;;;;;;;1.80;0.60;;;10.90;75.20;;;;;;2341428;54;21021;-67
2024/03/11 08:15:15;;;;;;;1.58;0.70;;;11.00;75.20;;;;;;2558398;53;21346;-66
2024/03/11 08:17:42;;;;;;;2.53;0.85;;;11.10;75.20;;;;;;2583666;53;21201;-66
2024/03/11 08:20:16;;;;;;;2.40;0.93;;;11.10;75.30;;;;;;2340243;54;20973;-66
2024/03/11 08:22:45;;;;;;;3.58;1.30;;;11.20;75.30;;;;;;2341438;54;20973;-66
2024/03/11 08:25:31;;;;;;;2.00;0.90;;;11.30;75.40;;;;;;2340734;54;21053;-67
2024/03/11 08:28:00;;;;;;;2.05;0.70;;;11.40;75.10;;;;;;2340276;54;20970;-67
2024/03/11 08:30:27;;;;;;;2.55;0.73;;;11.40;75.60;;;;;;2340785;54;20993;-66
2024/03/11 08:32:56;;;;;;;2.53;0.80;;;11.60;75.90;;;;;;2340499;54;21084;-66
2024/03/11 08:35:24;;;;;;;1.42;0.60;;;11.60;75.90;;;;;;2340129;54;21521;-67
2024/03/11 08:37:50;;;;;;;1.58;0.60;;;11.70;76.30;;;;;;2340468;54;21414;-67
2024/03/11 08:40:19;;;;;;;2.67;0.45;;;11.80;76.60;;;;;;2587268;53;21770;-67
2024/03/11 08:42:47;;;;;;;1.67;0.55;;;11.90;77.00;;;;;;2340945;54;21241;-67
2024/03/11 08:45:22;;;;;;;2.50;0.73;;;12.00;77.40;;;;;;2339905;54;21536;-66
2024/03/11 08:47:51;;;;;;;2.03;0.57;;;12.20;77.80;;;;;;2333081;54;20959;-67
2024/03/11 08:50:21;;;;;;;1.80;0.60;;;12.30;77.60;;;;;;2324541;54;21528;-66
2024/03/11 08:52:48;;;;;;;2.30;0.70;;;12.40;77.50;;;;;;2586609;53;21169;-67
2024/03/11 08:55:16;;;;;;;1.95;0.70;;;12.60;77.70;;;;;;2340578;54;21395;-66
2024/03/11 08:57:45;;;;;;;0.93;0.50;;;12.70;78.80;;;;;;2340594;54;21478;-67
2024/03/11 09:00:12;;;;;;;2.92;0.60;;;12.80;78.10;;;;;;2340065;54;20989;-68
2024/03/11 09:02:39;;;;;;;1.95;0.80;;;12.90;78.10;;;;;;2340778;54;21032;-68
2024/03/11 09:05:09;;;;;;;1.48;0.68;;;13.00;78.10;;;;;;2340481;54;20948;-67
2024/03/11 09:07:40;;;;;;;2.35;0.55;;;13.20;78.30;;;;;;2587035;53;21041;-67
2024/03/11 09:10:07;;;;;;;1.90;0.60;;;13.30;78.50;;;;;;2585151;53;21044;-68
2024/03/11 09:12:37;;;;;;;1.62;0.85;;;13.40;78.60;;;;;;2336491;54;21436;-68
2024/03/11 09:15:12;;;;;;;1.67;0.73;;;13.50;78.90;;;;;;2321358;54;21008;-67
2024/03/11 09:17:46;;;;;;;2.28;0.70;;;13.70;79.20;;;;;;2340997;54;21065;-66
2024/03/11 09:20:17;;;;;;;1.75;0.70;;;13.90;79.20;;;;;;2340270;54;21668;-66
2024/03/11 09:22:46;;;;;;;2.05;0.77;;;14.00;79.40;;;;;;2586620;53;21418;-68
2024/03/11 09:25:17;;;;;;;1.92;0.73;;;14.10;79.40;;;;;;2340174;54;21036;-68
2024/03/11 09:28:02;;;;;;;2.25;0.70;;;14.30;79.30;;;;;;2587301;53;20933;-68
2024/03/11 09:30:32;;;;;;;2.42;0.68;;;14.40;78.80;;;;;;2309202;55;21031;-67
2024/03/11 09:33:02;;;;;;;1.83;0.62;;;14.50;78.10;;;;;;2281682;55;21004;-67
2024/03/11 09:35:28;;;;;;;1.35;0.47;;;14.60;77.80;;;;;;2547744;54;20975;-66
2024/03/11 09:37:55;;;;;;;1.42;0.45;;;14.70;77.80;;;;;;2307913;54;20995;-66
2024/03/11 09:40:23;;;;;;;1.42;0.65;;;14.80;77.80;;;;;;2307600;54;20979;-68
2024/03/11 09:42:50;;;;;;;1.12;0.50;;;14.90;77.90;;;;;;2308290;54;21093;-67
2024/03/11 09:45:18;;;;;;;1.65;0.60;;;15.00;77.80;;;;;;2547254;54;21251;-67
2024/03/11 09:47:56;;;;;;;1.90;0.98;;;15.10;77.80;;;;;;2548329;54;20988;-66
2024/03/11 09:50:30;;;;;;;2.12;0.80;;;15.20;77.40;;;;;;2308562;54;21240;-66
2024/03/11 09:52:58;;;;;;;2.30;0.98;;;15.20;76.90;;;;;;2547278;54;21450;-67
2024/03/11 09:55:28;;;;;;;3.20;1.10;;;15.30;76.80;;;;;;2309193;54;20939;-67
2024/03/11 09:58:06;;;;;;;1.98;0.80;;;15.40;76.70;;;;;;2281798;55;20942;-65
2024/03/11 10:00:34;;;;;;;1.40;0.60;;;15.40;76.30;;;;;;2559541;53;20932;-68
2024/03/11 10:03:02;;;;;;;2.10;1.00;;;15.50;76.00;;;;;;2585776;53;21053;-68
2024/03/11 10:05:32;;;;;;;1.80;0.77;;;15.50;75.60;;;;;;2341371;54;20972;-67
2024/03/11 10:07:59;;;;;;;2.08;0.90;;;15.50;75.10;;;;;;2586318;53;21474;-67
2024/03/11 10:10:28;;;;;;;2.53;1.08;;;15.60;75.10;;;;;;2586271;53;21159;-67
2024/03/11 10:12:58;;;;;;;1.98;0.80;;;15.60;75.30;;;;;;2310268;55;21093;-67
2024/03/11 10:15:29;;;;;;;2.47;0.90;;;15.60;75.40;;;;;;2326532;54;21210;-67
2024/03/11 10:18:27;;;;;;;2.80;0.70;;;15.70;74.90;;;;;;2340481;54;20929;-67
2024/03/11 10:20:57;;;;;;;2.33;0.82;;;15.70;74.10;;;;;;2564004;53;20962;-67
2024/03/11 10:23:26;;;;;;;2.15;0.80;;;15.80;75.30;;;;;;2331300;54;20976;-66
2024/03/11 10:26:17;;;;;;;2.05;0.80;;;15.80;75.10;;;;;;2586266;53;21004;-67
2024/03/11 10:28:47;;;;;;;1.65;0.70;;;15.90;74.00;;;;;;2586290;53;21025;-68
2024/03/11 10:31:27;;;;;;;2.30;0.88;;;15.90;75.30;;;;;;2340083;54;21711;-66
2024/03/11 10:34:10;;;;;;;1.90;0.70;;;16.00;74.80;;;;;;2341591;54;20940;-67
2024/03/11 10:36:41;;;;;;;2.08;0.80;;;16.00;74.30;;;;;;2585853;53;21455;-68
2024/03/11 10:45:05;;;;;;;3.62;0.70;;;16.10;75.60;;;;;;2511022;54;21980;-67
2024/03/11 10:47:32;;;;;;;2.15;0.70;;;16.30;76.10;;;;;;2308589;54;21230;-68
2024/03/11 10:50:01;;;;;;;2.20;0.65;;;16.40;76.30;;;;;;2307960;54;20951;-68
2024/03/11 10:52:33;;;;;;;1.80;0.70;;;16.50;76.40;;;;;;2547389;54;21000;-67
2024/03/11 10:54:59;;;;;;;1.27;0.60;;;16.50;76.00;;;;;;2309592;54;20975;-67
2024/03/11 10:57:38;;;;;;;2.10;0.90;;;16.60;76.40;;;;;;2308716;54;20969;-67
2024/03/11 11:00:21;;;;;;;2.05;0.62;;;16.60;75.40;;;;;;2317585;55;21830;-68
2024/03/11 11:03:03;;;;;;;1.42;0.60;;;16.80;76.40;;;;;;2573875;53;21742;-67
2024/03/11 11:05:35;;;;;;;1.98;0.90;;;16.90;75.30;;;;;;2340489;54;20994;-68
2024/03/11 11:08:02;;;;;;;1.50;0.70;;;16.90;75.70;;;;;;2340155;54;20973;-67
2024/03/11 11:10:35;;;;;;;1.60;0.60;;;17.00;75.20;;;;;;2340247;54;21039;-67
2024/03/11 11:13:02;;;;;;;1.73;0.70;;;17.10;75.00;;;;;;2586245;53;21012;-68
2024/03/11 11:15:28;;;;;;;2.08;0.70;;;17.10;74.50;;;;;;2529244;53;20959;-67
2024/03/11 11:17:55;;;;;;;3.03;0.90;;;17.20;74.80;;;;;;2581689;53;20937;-67
2024/03/11 11:20:37;;;;;;;1.52;0.68;;;17.20;74.50;;;;;;2340435;54;21843;-68
2024/03/11 11:23:05;;;;;;;1.97;0.70;;;17.30;74.20;;;;;;2341002;54;21463;-66
2024/03/11 11:25:46;;;;;;;2.70;0.80;;;17.40;74.40;;;;;;2585804;53;21067;-67
2024/03/11 11:28:23;;;;;;;1.55;0.60;;;17.40;74.10;;;;;;2586216;53;21012;-67
2024/03/11 11:30:50;;;;;;;3.33;0.70;;;17.50;74.30;;;;;;2340298;54;20988;-68
2024/03/11 11:34:04;;;;;;;1.17;0.50;;;17.60;74.40;;;;;;2343163;54;20968;-67
2024/03/11 11:44:55;;;;;;;1.23;0.50;;;17.60;71.90;;;;;;2537570;53;21436;-68
2024/03/11 11:47:24;;;;;;;0.68;0.40;;;17.80;72.00;;;;;;2342207;54;21272;-70
2024/03/11 11:49:50;;;;;;;0.82;0.40;;;18.00;75.00;;;;;;2299810;55;21041;-69
2024/03/11 11:52:18;;;;;;;2.80;0.60;;;18.10;74.50;;;;;;2334596;54;21406;-69
2024/03/11 11:54:46;;;;;;;2.15;0.60;;;18.10;73.70;;;;;;2562526;53;21769;-68
2024/03/11 11:57:17;;;;;;;1.30;0.50;;;18.10;73.30;;;;;;2579227;53;21470;-68
2024/03/11 11:59:45;;;;;;;1.12;0.50;;;18.10;72.60;;;;;;2341373;54;21000;-69
2024/03/11 12:02:19;;;;;;;1.73;0.65;;;18.10;72.10;;;;;;2340887;54;20981;-70
2024/03/11 12:04:49;;;;;;;2.10;0.60;;;18.10;70.50;;;;;;2341373;54;21312;-69
2024/03/11 12:07:22;;;;;;;1.35;0.50;;;18.10;71.20;;;;;;2317414;55;21028;-68
2024/03/11 12:09:50;;;;;;;0.93;0.43;;;18.10;70.90;;;;;;2341129;54;21312;-68
2024/03/11 12:12:30;;;;;;;1.83;0.50;;;18.00;71.20;;;;;;2586343;53;21017;-71
2024/03/11 12:15:01;;;;;;;1.52;0.50;;;18.00;69.70;;;;;;2340732;54;21418;-70
2024/03/11 12:17:31;;;;;;;1.92;0.60;;;17.90;71.00;;;;;;2586517;53;20996;-70
2024/03/11 12:20:25;;;;;;;0.88;0.40;;;17.90;71.00;;;;;;2340202;54;20952;-69
2024/03/11 12:22:56;;;;;;;1.08;0.50;;;17.90;70.40;;;;;;2586671;53;20947;-69
2024/03/11 12:25:22;;;;;;;1.62;0.60;;;17.90;71.70;;;;;;2340520;54;20988;-69
2024/03/11 12:27:56;;;;;;;1.48;0.57;;;17.90;71.70;;;;;;2578543;53;21526;-68
2024/03/11 12:30:35;;;;;;;1.42;0.60;;;17.90;71.30;;;;;;2316566;55;21046;-68
2024/03/11 12:33:05;;;;;;;1.30;0.52;;;17.90;71.30;;;;;;2566459;53;20924;-68
2024/03/11 12:35:36;;;;;;;1.65;0.62;;;17.90;71.80;;;;;;2339909;54;20992;-69
2024/03/11 12:38:05;;;;;;;1.60;0.57;;;17.90;72.00;;;;;;2321565;54;20965;-68
2024/03/11 12:40:34;;;;;;;1.92;0.62;;;17.90;72.20;;;;;;2337397;54;21501;-68
2024/03/11 12:43:30;;;;;;;1.08;0.50;;;18.00;72.20;;;;;;2586853;53;21044;-68
2024/03/11 12:46:02;;;;;;;2.42;0.60;;;18.00;69.80;;;;;;2340686;54;21004;-68
2024/03/11 12:48:29;;;;;;;1.58;0.70;;;18.10;71.30;;;;;;2340135;54;21024;-68
2024/03/11 12:50:57;;;;;;;1.85;0.73;;;18.10;71.60;;;;;;2316775;55;20935;-68
2024/03/11 12:53:27;;;;;;;1.95;0.68;;;18.10;71.20;;;;;;2340521;54;20952;-69
2024/03/11 12:56:03;;;;;;;1.55;0.60;;;18.10;71.10;;;;;;2586547;53;21568;-68
2024/03/11 12:58:33;;;;;;;1.45;0.60;;;18.10;69.90;;;;;;2586393;53;21288;-68
2024/03/11 13:01:04;;;;;;;1.90;0.70;;;18.10;70.80;;;;;;2340376;54;20984;-68
2024/03/11 13:03:39;;;;;;;1.70;0.70;;;18.00;70.10;;;;;;2586605;53;20944;-68
2024/03/11 13:06:06;;;;;;;1.67;0.80;;;18.00;70.30;;;;;;2340687;54;21075;-68
2024/03/11 13:08:33;;;;;;;2.20;0.80;;;18.00;70.60;;;;;;2340229;54;20960;-68
2024/03/11 13:11:04;;;;;;;1.75;0.70;;;18.00;70.40;;;;;;2586955;53;20952;-68
2024/03/11 13:13:31;;;;;;;1.53;0.53;;;17.90;70.00;;;;;;2576205;53;21504;-67
2024/03/11 13:15:59;;;;;;;4.82;1.00;;;17.90;70.50;;;;;;2565091;53;21025;-67